Time;durP1;ratioP1;P1;durP2;ratioP2;P2;SDS_P1;SDS_P2;PMS_P1;PMS_P2;Temp;Humidity;BMP_temperature;BMP_pressure;BME280_temperature;BME280_humidity;BME280_pressure;Samples;Min_cycle;Max_cycle;Signal;HPM_P1;HPM_P2
2023/12/05 00:03:26;;;;;;;25.60;15.90;;;;;;;;;;103866;1289;544876;-73
2023/12/05 00:07:06;;;;;;;24.30;15.70;;;;;;;;;;103870;1289;545058;-73
2023/12/05 00:10:37;;;;;;;23.60;14.80;;;;;;;;;;104066;1292;544843;-73
2023/12/05 00:14:18;;;;;;;20.70;13.30;;;;;;;;;;103799;1295;545236;-72
2023/12/05 00:17:56;;;;;;;23.40;15.80;;;;;;;;;;103550;1295;545728;-73
2023/12/05 00:21:33;;;;;;;22.50;16.70;;;;;;;;;;103801;1292;545022;-72
2023/12/05 00:25:12;;;;;;;23.10;16.10;;;;;;;;;;103961;1288;546102;-73
2023/12/05 00:28:48;;;;;;;22.60;15.30;;;;;;;;;;103584;1293;546635;-72
2023/12/05 00:32:25;;;;;;;22.20;14.90;;;;;;;;;;103811;1289;544997;-71
2023/12/05 00:36:03;;;;;;;22.20;14.70;;;;;;;;;;103855;1290;546256;-72
2023/12/05 00:39:40;;;;;;;20.00;13.50;;;;;;;;;;103585;1295;545360;-72
2023/12/05 00:43:18;;;;;;;21.40;14.80;;;;;;;;;;104595;1286;545692;-72
2023/12/05 00:47:05;;;;;;;22.00;14.30;;;;;;;;;;103778;1290;544844;-72
2023/12/05 00:50:34;;;;;;;23.30;15.30;;;;;;;;;;103570;1306;545081;-71
2023/12/05 00:54:10;;;;;;;25.70;16.90;;;;;;;;;;103657;1291;545564;-73
2023/12/05 00:57:47;;;;;;;24.60;16.40;;;;;;;;;;104053;1289;544762;-72
2023/12/05 01:01:25;;;;;;;25.10;15.60;;;;;;;;;;103908;1292;544987;-73
2023/12/05 01:05:02;;;;;;;22.50;14.20;;;;;;;;;;103875;1288;545008;-72
2023/12/05 01:08:40;;;;;;;25.00;15.70;;;;;;;;;;103887;1288;546114;-72
2023/12/05 01:12:18;;;;;;;23.70;16.20;;;;;;;;;;103658;1291;545115;-72
2023/12/05 01:15:55;;;;;;;26.00;17.80;;;;;;;;;;103586;1295;544847;-72
2023/12/05 01:19:35;;;;;;;26.00;17.10;;;;;;;;;;103771;1293;544990;-72
2023/12/05 01:23:10;;;;;;;26.20;16.70;;;;;;;;;;103568;1294;545449;-72
2023/12/05 01:26:47;;;;;;;21.20;14.10;;;;;;;;;;103699;1292;545668;-73
2023/12/05 01:30:25;;;;;;;21.90;14.60;;;;;;;;;;104068;1289;544758;-72
2023/12/05 01:34:02;;;;;;;24.60;15.00;;;;;;;;;;103910;1289;545322;-72
2023/12/05 01:37:40;;;;;;;22.70;14.60;;;;;;;;;;103915;1288;544959;-72
2023/12/05 01:41:17;;;;;;;22.30;15.30;;;;;;;;;;103672;1292;544951;-72
2023/12/05 01:44:55;;;;;;;21.50;14.40;;;;;;;;;;103767;1291;544829;-72
2023/12/05 01:48:33;;;;;;;19.70;12.60;;;;;;;;;;103848;1292;545072;-73
2023/12/05 01:52:09;;;;;;;21.60;14.00;;;;;;;;;;104547;1282;544774;-72
2023/12/05 01:55:48;;;;;;;34.20;16.70;;;;;;;;;;103587;1295;546217;-72
2023/12/05 01:59:25;;;;;;;36.70;18.70;;;;;;;;;;103852;1292;544973;-72
2023/12/05 02:03:08;;;;;;;41.00;19.60;;;;;;;;;;104091;1285;549173;-72
2023/12/05 02:06:39;;;;;;;23.60;16.00;;;;;;;;;;104150;1285;544934;-73
2023/12/05 02:10:17;;;;;;;25.10;15.30;;;;;;;;;;104298;1282;544826;-71
2023/12/05 02:13:54;;;;;;;31.60;15.50;;;;;;;;;;103921;1292;545734;-71
2023/12/05 02:17:35;;;;;;;39.20;18.80;;;;;;;;;;103952;1288;545158;-73
2023/12/05 02:21:15;;;;;;;38.30;18.60;;;;;;;;;;103839;1290;545463;-72
2023/12/05 02:24:56;;;;;;;23.00;15.30;;;;;;;;;;103791;1289;545946;-73
2023/12/05 02:28:24;;;;;;;23.10;15.10;;;;;;;;;;103832;1292;544970;-72
2023/12/05 02:32:02;;;;;;;25.50;15.60;;;;;;;;;;103722;1291;545015;-73
2023/12/05 02:35:39;;;;;;;21.00;14.30;;;;;;;;;;103811;1292;544987;-72
2023/12/05 02:39:32;;;;;;;20.90;13.90;;;;;;;;;;103973;1286;544745;-71
2023/12/05 02:42:55;;;;;;;21.10;14.80;;;;;;;;;;104220;1285;544787;-73
2023/12/05 02:46:33;;;;;;;20.90;15.80;;;;;;;;;;103887;1301;545444;-72
2023/12/05 02:50:09;;;;;;;23.20;17.30;;;;;;;;;;103684;1291;545545;-72
2023/12/05 02:53:52;;;;;;;20.60;14.30;;;;;;;;;;103739;1290;548092;-73
2023/12/05 02:57:24;;;;;;;18.90;13.60;;;;;;;;;;103802;1292;545124;-73
2023/12/05 03:00:57;;;;;;;19.50;14.50;;;;;;;;;;103957;1289;544801;-73
2023/12/05 03:04:44;;;;;;;21.00;15.60;;;;;;;;;;103718;1289;547786;-72
2023/12/05 03:08:16;;;;;;;22.50;15.60;;;;;;;;;;103602;1294;545762;-72
2023/12/05 03:11:54;;;;;;;20.30;14.40;;;;;;;;;;103813;1291;544951;-73
2023/12/05 03:15:31;;;;;;;23.40;14.90;;;;;;;;;;103591;1293;544962;-71
2023/12/05 03:19:14;;;;;;;20.50;14.10;;;;;;;;;;103590;1291;547798;-72
2023/12/05 03:22:47;;;;;;;21.00;15.10;;;;;;;;;;103823;1291;545984;-72
2023/12/05 03:26:24;;;;;;;23.20;16.10;;;;;;;;;;103808;1292;544931;-72
2023/12/05 03:30:08;;;;;;;21.20;15.00;;;;;;;;;;104183;1285;548158;-71
2023/12/05 03:33:39;;;;;;;19.60;13.80;;;;;;;;;;103553;1294;545993;-72
2023/12/05 03:37:19;;;;;;;21.50;14.80;;;;;;;;;;103852;1292;545366;-71
2023/12/05 03:40:54;;;;;;;20.50;14.90;;;;;;;;;;103920;1290;546031;-73
2023/12/05 03:44:31;;;;;;;21.10;16.00;;;;;;;;;;103600;1293;544742;-73
2023/12/05 03:48:08;;;;;;;25.00;17.30;;;;;;;;;;103815;1292;544866;-72
2023/12/05 03:51:46;;;;;;;22.90;15.60;;;;;;;;;;103953;1292;545696;-73
2023/12/05 03:55:23;;;;;;;21.00;14.90;;;;;;;;;;103665;1294;545071;-72
2023/12/05 03:59:03;;;;;;;19.40;14.60;;;;;;;;;;104168;1286;545526;-72
2023/12/05 04:02:38;;;;;;;23.30;16.70;;;;;;;;;;104015;1289;544758;-73
2023/12/05 04:06:22;;;;;;;21.50;16.10;;;;;;;;;;104586;1286;544913;-73
2023/12/05 04:09:53;;;;;;;22.20;16.70;;;;;;;;;;103725;1291;544839;-72
2023/12/05 04:13:36;;;;;;;20.30;14.50;;;;;;;;;;103784;1294;547876;-72
2023/12/05 04:17:08;;;;;;;20.00;14.30;;;;;;;;;;103992;1289;545039;-71
2023/12/05 04:20:46;;;;;;;19.00;13.80;;;;;;;;;;104675;1282;545442;-71
2023/12/05 04:24:23;;;;;;;19.70;14.80;;;;;;;;;;103736;1292;545079;-71
2023/12/05 04:28:01;;;;;;;21.30;15.80;;;;;;;;;;103713;1294;545064;-73
2023/12/05 04:31:38;;;;;;;21.30;16.00;;;;;;;;;;103845;1291;545542;-72
2023/12/05 04:35:16;;;;;;;21.90;15.00;;;;;;;;;;103568;1293;545461;-72
2023/12/05 04:38:52;;;;;;;19.80;14.60;;;;;;;;;;103689;1291;545045;-72
2023/12/05 04:42:34;;;;;;;20.60;14.70;;;;;;;;;;103625;1293;544874;-72
2023/12/05 04:46:08;;;;;;;20.90;15.30;;;;;;;;;;103820;1292;544768;-72
2023/12/05 04:49:45;;;;;;;22.20;16.30;;;;;;;;;;103644;1291;544878;-73
2023/12/05 04:53:19;;;;;;;25.30;18.20;;;;;;;;;;103791;1290;545370;-73
2023/12/05 04:57:00;;;;;;;23.70;17.20;;;;;;;;;;104531;1288;544740;-73
2023/12/05 05:00:34;;;;;;;23.50;16.40;;;;;;;;;;103792;1291;545487;-72
2023/12/05 05:04:15;;;;;;;22.00;15.50;;;;;;;;;;103768;1289;544868;-73
2023/12/05 05:07:53;;;;;;;22.20;15.90;;;;;;;;;;103721;1295;544997;-72
2023/12/05 05:11:30;;;;;;;23.70;16.60;;;;;;;;;;103825;1292;544961;-72
2023/12/05 05:15:18;;;;;;;28.10;19.30;;;;;;;;;;103599;1294;545630;-73
2023/12/05 05:18:44;;;;;;;26.20;18.50;;;;;;;;;;103810;1289;545924;-73
2023/12/05 05:22:22;;;;;;;22.00;15.10;;;;;;;;;;104297;1284;544967;-72
2023/12/05 05:26:00;;;;;;;22.50;15.70;;;;;;;;;;103882;1292;545159;-74
2023/12/05 05:29:38;;;;;;;23.30;16.20;;;;;;;;;;104228;1285;545355;-73
2023/12/05 05:33:16;;;;;;;24.30;17.40;;;;;;;;;;103832;1291;545377;-72
2023/12/05 05:36:52;;;;;;;30.50;21.20;;;;;;;;;;103798;1300;545149;-73
2023/12/05 05:40:30;;;;;;;34.00;22.10;;;;;;;;;;103751;1291;545438;-73
2023/12/05 05:44:07;;;;;;;33.10;20.80;;;;;;;;;;103789;1289;545864;-73
2023/12/05 05:47:45;;;;;;;27.80;19.20;;;;;;;;;;103715;1289;544854;-72
2023/12/05 05:51:21;;;;;;;30.90;20.60;;;;;;;;;;104247;1285;544882;-73
2023/12/05 05:55:03;;;;;;;30.60;21.00;;;;;;;;;;103856;1301;544981;-72
2023/12/05 05:58:43;;;;;;;26.30;17.80;;;;;;;;;;103623;1295;548003;-71
2023/12/05 06:02:17;;;;;;;25.30;17.20;;;;;;;;;;103770;1291;544921;-72
2023/12/05 06:06:03;;;;;;;26.20;18.10;;;;;;;;;;103779;1295;545005;-73
2023/12/05 06:09:32;;;;;;;28.30;19.90;;;;;;;;;;103985;1288;544876;-72
2023/12/05 06:13:07;;;;;;;29.80;20.10;;;;;;;;;;103849;1289;546298;-72
2023/12/05 06:16:45;;;;;;;28.00;20.30;;;;;;;;;;103780;1289;545675;-72
2023/12/05 06:20:22;;;;;;;25.40;17.50;;;;;;;;;;103897;1289;545000;-72
2023/12/05 06:24:00;;;;;;;26.70;17.80;;;;;;;;;;103857;1292;544768;-73
2023/12/05 06:27:39;;;;;;;28.70;19.70;;;;;;;;;;103759;1292;545078;-72
2023/12/05 06:31:15;;;;;;;33.40;22.50;;;;;;;;;;103965;1289;545441;-72
2023/12/05 06:34:52;;;;;;;32.00;23.00;;;;;;;;;;103821;1292;546950;-72
2023/12/05 06:38:49;;;;;;;34.80;23.10;;;;;;;;;;103718;1290;545382;-72
2023/12/05 06:42:07;;;;;;;28.50;19.40;;;;;;;;;;103811;1291;544808;-73
2023/12/05 06:45:46;;;;;;;23.60;16.90;;;;;;;;;;103702;1292;544832;-72
2023/12/05 06:49:22;;;;;;;25.30;18.10;;;;;;;;;;103614;1295;545633;-72
2023/12/05 06:52:59;;;;;;;23.80;17.70;;;;;;;;;;103806;1290;545088;-72
2023/12/05 06:56:36;;;;;;;26.80;19.30;;;;;;;;;;104493;1282;544989;-72
2023/12/05 07:00:14;;;;;;;24.80;17.00;;;;;;;;;;103701;1292;545444;-72
2023/12/05 07:03:51;;;;;;;22.90;16.70;;;;;;;;;;103895;1292;545671;-72
2023/12/05 07:07:29;;;;;;;24.80;17.90;;;;;;;;;;103888;1289;545050;-72
2023/12/05 07:11:09;;;;;;;50.60;28.40;;;;;;;;;;103729;1291;545663;-72
2023/12/05 07:14:44;;;;;;;69.00;34.00;;;;;;;;;;103764;1292;545885;-73
2023/12/05 07:18:24;;;;;;;33.50;21.40;;;;;;;;;;103830;1291;545380;-72
2023/12/05 07:22:01;;;;;;;31.10;20.90;;;;;;;;;;103722;1291;545060;-72
2023/12/05 07:25:36;;;;;;;35.70;22.80;;;;;;;;;;103809;1289;545269;-72
2023/12/05 07:29:14;;;;;;;32.90;22.70;;;;;;;;;;103760;1292;545564;-72
2023/12/05 07:32:51;;;;;;;41.50;26.80;;;;;;;;;;103574;1296;544871;-73
2023/12/05 07:36:29;;;;;;;44.70;30.30;;;;;;;;;;103898;1288;545071;-73
2023/12/05 07:40:09;;;;;;;38.60;26.20;;;;;;;;;;103832;1291;546322;-72
2023/12/05 07:43:43;;;;;;;31.40;21.20;;;;;;;;;;103884;1292;544723;-72
2023/12/05 07:47:23;;;;;;;28.30;19.20;;;;;;;;;;103883;1292;545978;-72
2023/12/05 07:50:58;;;;;;;28.30;19.70;;;;;;;;;;103642;1293;544779;-72
2023/12/05 07:54:36;;;;;;;31.00;21.40;;;;;;;;;;103820;1291;545526;-73
2023/12/05 07:58:13;;;;;;;30.30;21.40;;;;;;;;;;103838;1292;545538;-73
2023/12/05 08:01:50;;;;;;;29.20;21.10;;;;;;;;;;103938;1288;545024;-72
2023/12/05 08:05:28;;;;;;;27.70;19.40;;;;;;;;;;103752;1289;545683;-73
2023/12/05 08:09:08;;;;;;;27.00;17.90;;;;;;;;;;103777;1289;545676;-73
2023/12/05 08:16:28;;;;;;;27.30;19.50;;;;;;;;;;104353;1286;544834;-73
2023/12/05 08:20:06;;;;;;;28.70;20.60;;;;;;;;;;103792;1290;544999;-74
2023/12/05 08:23:43;;;;;;;31.30;21.60;;;;;;;;;;103793;1301;544638;-73
2023/12/05 08:27:21;;;;;;;30.00;22.40;;;;;;;;;;104284;1284;544830;-74
2023/12/05 08:30:58;;;;;;;33.80;22.40;;;;;;;;;;103741;1292;544924;-74
2023/12/05 08:34:35;;;;;;;32.40;21.10;;;;;;;;;;103818;1289;544993;-75
2023/12/05 08:38:13;;;;;;;35.00;24.00;;;;;;;;;;103766;1291;544798;-74
2023/12/05 08:41:58;;;;;;;35.50;24.30;;;;;;;;;;104033;1288;545504;-74
2023/12/05 08:45:24;;;;;;;38.50;26.10;;;;;;;;;;103837;1289;544710;-74
2023/12/05 08:49:08;;;;;;;37.00;25.40;;;;;;;;;;103797;1295;545187;-75
2023/12/05 08:52:44;;;;;;;37.60;25.00;;;;;;;;;;103809;1292;544838;-75
2023/12/05 08:56:20;;;;;;;33.70;22.60;;;;;;;;;;103742;1290;544982;-75
2023/12/05 08:59:58;;;;;;;35.80;21.90;;;;;;;;;;103941;1289;545532;-74
2023/12/05 09:03:35;;;;;;;31.60;21.80;;;;;;;;;;103805;1292;544973;-75
2023/12/05 09:07:16;;;;;;;35.40;23.00;;;;;;;;;;103841;1292;545544;-75
2023/12/05 09:10:50;;;;;;;36.40;24.00;;;;;;;;;;103833;1292;545827;-75
2023/12/05 09:14:28;;;;;;;33.30;23.10;;;;;;;;;;103817;1289;544755;-75
2023/12/05 09:18:05;;;;;;;33.60;23.00;;;;;;;;;;103810;1290;546226;-74
2023/12/05 09:21:45;;;;;;;33.10;21.70;;;;;;;;;;103665;1297;544857;-74
2023/12/05 09:25:28;;;;;;;29.20;19.60;;;;;;;;;;103606;1298;547796;-78
2023/12/05 09:28:57;;;;;;;29.40;20.10;;;;;;;;;;103784;1291;544741;-75
2023/12/05 09:32:35;;;;;;;29.50;19.90;;;;;;;;;;104034;1293;545007;-75
2023/12/05 09:36:12;;;;;;;32.70;22.30;;;;;;;;;;103776;1292;544774;-75
2023/12/05 09:39:49;;;;;;;36.70;23.80;;;;;;;;;;103866;1290;545594;-76
2023/12/05 09:43:28;;;;;;;42.10;25.50;;;;;;;;;;103802;1292;544791;-74
2023/12/05 09:47:09;;;;;;;40.60;25.00;;;;;;;;;;103622;1291;545072;-75
2023/12/05 09:50:43;;;;;;;36.50;22.20;;;;;;;;;;103794;1292;545035;-75
2023/12/05 09:54:19;;;;;;;33.70;22.00;;;;;;;;;;103616;1290;545376;-73
2023/12/05 09:57:58;;;;;;;34.50;22.00;;;;;;;;;;103802;1292;545669;-74
2023/12/05 10:01:35;;;;;;;35.50;22.70;;;;;;;;;;103571;1295;544816;-77
2023/12/05 10:05:17;;;;;;;38.10;23.40;;;;;;;;;;103945;1288;544995;-75
2023/12/05 10:08:51;;;;;;;36.40;24.40;;;;;;;;;;103811;1288;544969;-77
2023/12/05 10:12:28;;;;;;;35.50;24.70;;;;;;;;;;103880;1289;545034;-75
2023/12/05 10:16:06;;;;;;;38.90;27.60;;;;;;;;;;103831;1290;545334;-73
2023/12/05 10:20:02;;;;;;;43.50;27.20;;;;;;;;;;103978;1289;544882;-77
2023/12/05 10:23:19;;;;;;;37.20;23.20;;;;;;;;;;103846;1288;545156;-76
2023/12/05 10:27:00;;;;;;;37.60;24.10;;;;;;;;;;103774;1292;544947;-73
2023/12/05 10:30:37;;;;;;;37.60;24.20;;;;;;;;;;103785;1292;545043;-76
2023/12/05 10:34:12;;;;;;;37.30;23.80;;;;;;;;;;103827;1289;545774;-73
2023/12/05 10:38:03;;;;;;;38.10;24.50;;;;;;;;;;103474;1295;547673;-79
2023/12/05 10:41:32;;;;;;;38.20;24.70;;;;;;;;;;103736;1292;547800;-75
2023/12/05 10:45:07;;;;;;;27.70;19.50;;;;;;;;;;103748;1295;545105;-76
2023/12/05 10:48:43;;;;;;;29.20;19.50;;;;;;;;;;103766;1289;545948;-76
2023/12/05 10:52:20;;;;;;;31.20;19.80;;;;;;;;;;103838;1292;545207;-77
2023/12/05 10:56:09;;;;;;;30.60;20.80;;;;;;;;;;104049;1289;544835;-78
2023/12/05 10:59:34;;;;;;;26.90;19.10;;;;;;;;;;103817;1289;545997;-78
2023/12/05 11:03:13;;;;;;;29.00;19.50;;;;;;;;;;103775;1291;545021;-78
2023/12/05 11:06:54;;;;;;;32.20;21.20;;;;;;;;;;103730;1295;546477;-76
2023/12/05 11:10:44;;;;;;;;;;;;;;;;;;;;;
2023/12/05 11:14:10;;;;;;;34.70;22.80;;;;;;;;;;103711;1289;548211;-77
2023/12/05 11:17:57;;;;;;;37.40;25.20;;;;;;;;;;103605;1291;547755;-78
2023/12/05 11:21:22;;;;;;;40.00;25.80;;;;;;;;;;103799;1292;544946;-76
2023/12/05 11:25:20;;;;;;;48.80;30.50;;;;;;;;;;103628;1292;549252;-76
2023/12/05 11:28:53;;;;;;;51.60;29.70;;;;;;;;;;103863;1290;545700;-76
2023/12/05 11:32:23;;;;;;;47.50;27.60;;;;;;;;;;103584;1294;547990;-77
2023/12/05 11:35:58;;;;;;;57.50;33.50;;;;;;;;;;103920;1289;544917;-75
2023/12/05 11:39:28;;;;;;;68.70;37.80;;;;;;;;;;103855;1293;546228;-76
2023/12/05 11:43:17;;;;;;;67.10;40.30;;;;;;;;;;103884;1295;545523;-77
2023/12/05 11:46:45;;;;;;;48.40;30.20;;;;;;;;;;103628;1291;544960;-75
2023/12/05 11:50:21;;;;;;;43.10;27.80;;;;;;;;;;103730;1291;545215;-75
2023/12/05 11:53:56;;;;;;;31.90;23.70;;;;;;;;;;103723;1289;545415;-76
2023/12/05 11:57:40;;;;;;;34.60;23.10;;;;;;;;;;103729;1291;548013;-79
2023/12/05 12:01:17;;;;;;;33.50;23.30;;;;;;;;;;103663;1295;547973;-76
2023/12/05 12:04:58;;;;;;;40.40;26.40;;;;;;;;;;103835;1289;545048;-77
2023/12/05 12:08:22;;;;;;;37.70;25.40;;;;;;;;;;103874;1289;544960;-76
2023/12/05 12:12:04;;;;;;;38.10;26.30;;;;;;;;;;103568;1298;544826;-77
2023/12/05 12:15:44;;;;;;;38.00;24.20;;;;;;;;;;103716;1292;544957;-77
2023/12/05 12:19:18;;;;;;;39.10;26.30;;;;;;;;;;103815;1289;544741;-77
2023/12/05 12:23:01;;;;;;;43.10;29.20;;;;;;;;;;103687;1292;545452;-76
2023/12/05 12:26:33;;;;;;;40.30;26.40;;;;;;;;;;103762;1292;546079;-76
2023/12/05 12:30:17;;;;;;;40.70;27.80;;;;;;;;;;103714;1291;545354;-76
2023/12/05 12:33:49;;;;;;;38.40;26.80;;;;;;;;;;103846;1289;545078;-78
2023/12/05 12:37:26;;;;;;;39.30;27.80;;;;;;;;;;103803;1292;545270;-76
2023/12/05 12:41:03;;;;;;;48.70;35.30;;;;;;;;;;103801;1291;544875;-76
2023/12/05 12:44:40;;;;;;;50.50;35.10;;;;;;;;;;103814;1289;545074;-77
2023/12/05 12:48:18;;;;;;;45.20;31.20;;;;;;;;;;103719;1292;545942;-77
2023/12/05 12:51:55;;;;;;;40.90;28.00;;;;;;;;;;103954;1288;545035;-76
2023/12/05 12:55:33;;;;;;;41.90;27.90;;;;;;;;;;103719;1289;545326;-76
2023/12/05 12:59:16;;;;;;;50.80;31.90;;;;;;;;;;103846;1292;545017;-76
2023/12/05 13:02:53;;;;;;;65.40;39.90;;;;;;;;;;103717;1289;545602;-77
2023/12/05 13:06:36;;;;;;;72.30;40.20;;;;;;;;;;104284;1286;544784;-77
2023/12/05 13:10:06;;;;;;;69.30;39.60;;;;;;;;;;103841;1289;544994;-76
2023/12/05 13:13:41;;;;;;;47.50;29.70;;;;;;;;;;103914;1289;546077;-76
2023/12/05 13:17:17;;;;;;;39.90;26.90;;;;;;;;;;103977;1288;545402;-76
2023/12/05 13:20:55;;;;;;;37.70;24.10;;;;;;;;;;103692;1292;545443;-77
2023/12/05 13:24:34;;;;;;;35.40;22.30;;;;;;;;;;103641;1291;546704;-77
2023/12/05 13:28:10;;;;;;;39.00;24.50;;;;;;;;;;103719;1290;545043;-77
2023/12/05 13:31:52;;;;;;;42.30;26.80;;;;;;;;;;103947;1291;545158;-76
2023/12/05 13:39:17;;;;;;;44.00;29.00;;;;;;;;;;103676;1292;547984;-76
2023/12/05 13:42:48;;;;;;;37.10;26.70;;;;;;;;;;103766;1292;545261;-77
2023/12/05 13:46:24;;;;;;;44.90;30.50;;;;;;;;;;103727;1292;545406;-76
2023/12/05 13:50:05;;;;;;;47.00;32.70;;;;;;;;;;103782;1289;546277;-77
2023/12/05 13:53:57;;;;;;;50.00;32.40;;;;;;;;;;103681;1297;545040;-77
2023/12/05 13:57:38;;;;;;;47.60;30.70;;;;;;;;;;103396;1294;547516;-78
2023/12/05 14:00:55;;;;;;;41.20;28.20;;;;;;;;;;103679;1289;546045;-77
2023/12/05 14:04:33;;;;;;;34.40;23.30;;;;;;;;;;103834;1289;544909;-78
2023/12/05 14:08:13;;;;;;;36.30;25.10;;;;;;;;;;103900;1288;546298;-77
2023/12/05 14:11:47;;;;;;;34.30;23.90;;;;;;;;;;103955;1291;544933;-77
2023/12/05 14:15:33;;;;;;;35.30;24.60;;;;;;;;;;103699;1295;545015;-77
2023/12/05 14:19:02;;;;;;;35.40;23.50;;;;;;;;;;103688;1292;545053;-77
2023/12/05 14:22:44;;;;;;;33.10;22.50;;;;;;;;;;103781;1292;545146;-78
2023/12/05 14:26:45;;;;;;;33.70;22.90;;;;;;;;;;103817;1288;549076;-79
2023/12/05 14:29:57;;;;;;;34.30;23.90;;;;;;;;;;103535;1292;545917;-78
2023/12/05 14:33:35;;;;;;;41.40;28.40;;;;;;;;;;103813;1292;545191;-78
2023/12/05 14:37:15;;;;;;;39.50;27.90;;;;;;;;;;103665;1292;549788;-77
2023/12/05 14:41:02;;;;;;;40.90;28.20;;;;;;;;;;103632;1291;547552;-76
2023/12/05 14:44:49;;;;;;;42.70;28.90;;;;;;;;;;104103;1288;545557;-77
2023/12/05 14:48:34;;;;;;;42.10;26.30;;;;;;;;;;103360;1295;545451;-78
2023/12/05 14:51:39;;;;;;;38.60;25.80;;;;;;;;;;104070;1290;545126;-77
2023/12/05 14:55:33;;;;;;;41.70;28.00;;;;;;;;;;103804;1291;545031;-76
2023/12/05 14:59:23;;;;;;;53.70;32.40;;;;;;;;;;103695;1294;545486;-77
2023/12/05 15:02:35;;;;;;;66.70;40.30;;;;;;;;;;103739;1292;547777;-77
2023/12/05 15:06:13;;;;;;;76.20;46.00;;;;;;;;;;103744;1295;545298;-78
2023/12/05 15:10:16;;;;;;;61.60;35.70;;;;;;;;;;103623;1292;550373;-81
2023/12/05 15:13:29;;;;;;;52.40;31.00;;;;;;;;;;103768;1301;548011;-77
2023/12/05 15:17:13;;;;;;;65.00;38.50;;;;;;;;;;103871;1292;545258;-78
2023/12/05 15:20:49;;;;;;;43.90;29.70;;;;;;;;;;103659;1292;545330;-77
2023/12/05 15:24:21;;;;;;;38.20;25.60;;;;;;;;;;103752;1291;548077;-77
2023/12/05 15:27:55;;;;;;;39.90;27.40;;;;;;;;;;103823;1289;545411;-77
2023/12/05 15:31:39;;;;;;;37.50;25.20;;;;;;;;;;103731;1292;545348;-77
2023/12/05 15:35:08;;;;;;;38.10;25.30;;;;;;;;;;103920;1301;545615;-76
2023/12/05 15:38:43;;;;;;;41.10;27.50;;;;;;;;;;103980;1289;544818;-77
2023/12/05 15:42:26;;;;;;;47.20;29.20;;;;;;;;;;103823;1293;545290;-77
2023/12/05 15:45:57;;;;;;;45.70;30.70;;;;;;;;;;103836;1289;545958;-77
2023/12/05 15:49:42;;;;;;;43.40;27.80;;;;;;;;;;103808;1291;549091;-76
2023/12/05 15:53:16;;;;;;;37.10;24.70;;;;;;;;;;104579;1285;545174;-77
2023/12/05 15:56:53;;;;;;;36.70;25.00;;;;;;;;;;103756;1291;545618;-77
2023/12/05 16:00:31;;;;;;;43.00;26.90;;;;;;;;;;103751;1290;544778;-76
2023/12/05 16:04:07;;;;;;;50.30;31.40;;;;;;;;;;104051;1289;544950;-77
2023/12/05 16:07:49;;;;;;;59.60;36.90;;;;;;;;;;103736;1293;544977;-76
2023/12/05 16:11:19;;;;;;;65.50;38.10;;;;;;;;;;103951;1292;545990;-76
2023/12/05 16:15:03;;;;;;;68.20;40.30;;;;;;;;;;104604;1283;545032;-77
2023/12/05 16:18:50;;;;;;;68.80;43.60;;;;;;;;;;103749;1292;544899;-76
2023/12/05 16:22:12;;;;;;;76.40;44.70;;;;;;;;;;104150;1286;544741;-76
2023/12/05 16:26:07;;;;;;;73.90;44.30;;;;;;;;;;103683;1292;545441;-76
2023/12/05 16:29:50;;;;;;;77.80;46.50;;;;;;;;;;104136;1288;547888;-76
2023/12/05 16:33:07;;;;;;;76.40;43.60;;;;;;;;;;103818;1289;545173;-76
2023/12/05 16:37:06;;;;;;;74.60;42.80;;;;;;;;;;103798;1289;544845;-77
2023/12/05 16:40:46;;;;;;;74.10;44.30;;;;;;;;;;103561;1295;547803;-76
2023/12/05 16:44:04;;;;;;;79.80;46.90;;;;;;;;;;103689;1292;545983;-77
2023/12/05 16:47:39;;;;;;;86.80;50.30;;;;;;;;;;103798;1292;544727;-76
2023/12/05 16:51:19;;;;;;;89.40;50.80;;;;;;;;;;103743;1292;546066;-75
2023/12/05 16:54:53;;;;;;;84.70;47.40;;;;;;;;;;103757;1290;544988;-75
2023/12/05 16:58:34;;;;;;;86.40;47.20;;;;;;;;;;103866;1288;548139;-76
2023/12/05 17:02:08;;;;;;;82.00;46.40;;;;;;;;;;103821;1289;545216;-75
2023/12/05 17:05:48;;;;;;;94.20;55.20;;;;;;;;;;103698;1291;549199;-74
2023/12/05 17:09:23;;;;;;;142.80;88.20;;;;;;;;;;103882;1293;545003;-75
2023/12/05 17:13:20;;;;;;;92.10;54.80;;;;;;;;;;103773;1295;547842;-76
2023/12/05 17:16:39;;;;;;;104.00;60.50;;;;;;;;;;104078;1292;544907;-76
2023/12/05 17:20:15;;;;;;;86.30;50.60;;;;;;;;;;103721;1292;546143;-76
2023/12/05 17:24:02;;;;;;;;;;;;;;;;;;;;;
2023/12/05 17:27:30;;;;;;;88.30;53.10;;;;;;;;;;103781;1292;544891;-77
2023/12/05 17:31:14;;;;;;;91.10;53.70;;;;;;;;;;103654;1294;545165;-75
2023/12/05 17:34:45;;;;;;;105.70;60.30;;;;;;;;;;103887;1290;545742;-76
2023/12/05 17:38:42;;;;;;;104.40;56.90;;;;;;;;;;103559;1297;549235;-76
2023/12/05 17:42:17;;;;;;;103.70;57.20;;;;;;;;;;103774;1289;547999;-77
2023/12/05 17:45:43;;;;;;;105.10;62.00;;;;;;;;;;103599;1291;545363;-75
2023/12/05 17:49:30;;;;;;;118.10;68.10;;;;;;;;;;103641;1303;548001;-75
2023/12/05 17:52:58;;;;;;;154.90;84.70;;;;;;;;;;103776;1291;549000;-74
2023/12/05 17:56:30;;;;;;;163.50;89.90;;;;;;;;;;104275;1285;544822;-76
2023/12/05 18:00:08;;;;;;;158.90;82.00;;;;;;;;;;103751;1293;545918;-76
2023/12/05 18:03:44;;;;;;;149.20;79.30;;;;;;;;;;103717;1292;545298;-77
2023/12/05 18:07:23;;;;;;;145.60;79.20;;;;;;;;;;103948;1294;545706;-74
2023/12/05 18:11:15;;;;;;;;;;;;;;;;;;;;;
2023/12/05 18:14:48;;;;;;;157.50;86.80;;;;;;;;;;103743;1295;547765;-74
2023/12/05 18:18:15;;;;;;;165.90;91.50;;;;;;;;;;104651;1283;545436;-76
2023/12/05 18:21:52;;;;;;;157.10;82.60;;;;;;;;;;104038;1289;544985;-75
2023/12/05 18:25:36;;;;;;;169.80;88.10;;;;;;;;;;104126;1289;546443;-74
2023/12/05 18:29:16;;;;;;;177.30;93.40;;;;;;;;;;103495;1295;545434;-78
2023/12/05 18:32:52;;;;;;;182.90;98.60;;;;;;;;;;103726;1292;547831;-77
2023/12/05 18:36:27;;;;;;;170.50;93.70;;;;;;;;;;103763;1290;544783;-77
2023/12/05 18:40:04;;;;;;;163.90;92.50;;;;;;;;;;103759;1299;548978;-75
2023/12/05 18:43:35;;;;;;;152.80;82.60;;;;;;;;;;103784;1292;545616;-74
2023/12/05 18:47:15;;;;;;;153.20;81.30;;;;;;;;;;104218;1286;545608;-75
2023/12/05 18:51:27;;;;;;;149.40;83.50;;;;;;;;;;104327;1291;545242;-75
2023/12/05 18:54:37;;;;;;;147.20;83.40;;;;;;;;;;103696;1298;546805;-74
2023/12/05 19:01:44;;;;;;;176.70;97.30;;;;;;;;;;104286;1286;545852;-76
2023/12/05 19:05:24;;;;;;;167.30;86.60;;;;;;;;;;103801;1289;545076;-73
2023/12/05 19:09:00;;;;;;;161.00;84.20;;;;;;;;;;104116;1285;545095;-75
2023/12/05 19:12:39;;;;;;;255.20;117.40;;;;;;;;;;103835;1293;545889;-74
2023/12/05 19:16:24;;;;;;;235.50;118.20;;;;;;;;;;103666;1297;547966;-76
2023/12/05 19:19:52;;;;;;;201.80;110.00;;;;;;;;;;103682;1295;545145;-74
2023/12/05 19:23:39;;;;;;;;;;;;;;;;;;;;;
2023/12/05 19:27:06;;;;;;;178.90;98.90;;;;;;;;;;103738;1291;544923;-75
2023/12/05 19:31:11;;;;;;;198.90;111.50;;;;;;;;;;104130;1289;548207;-77
2023/12/05 19:34:29;;;;;;;200.80;110.00;;;;;;;;;;103819;1289;545033;-74
2023/12/05 19:38:28;;;;;;;204.10;108.90;;;;;;;;;;103838;1289;544935;-74
2023/12/05 19:41:36;;;;;;;191.20;102.20;;;;;;;;;;103792;1292;545165;-73
2023/12/05 19:45:14;;;;;;;185.30;94.10;;;;;;;;;;103815;1292;545018;-75
2023/12/05 19:48:57;;;;;;;193.20;100.80;;;;;;;;;;104050;1289;545321;-75
2023/12/05 19:52:49;;;;;;;191.90;103.00;;;;;;;;;;103834;1292;544975;-74
2023/12/05 19:56:08;;;;;;;193.10;109.90;;;;;;;;;;103927;1295;545605;-73
2023/12/05 20:00:05;;;;;;;191.80;106.50;;;;;;;;;;104071;1292;547759;-74
2023/12/05 20:03:24;;;;;;;180.70;94.00;;;;;;;;;;104005;1292;544958;-73
2023/12/05 20:07:07;;;;;;;183.50;95.10;;;;;;;;;;103477;1295;545536;-72
2023/12/05 20:10:43;;;;;;;179.60;101.30;;;;;;;;;;103750;1292;545761;-74
2023/12/05 20:14:16;;;;;;;187.80;99.70;;;;;;;;;;103572;1294;545734;-75
2023/12/05 20:17:52;;;;;;;180.50;101.60;;;;;;;;;;103820;1310;547874;-72
2023/12/05 20:21:32;;;;;;;188.50;104.70;;;;;;;;;;104123;1285;545836;-74
2023/12/05 20:25:16;;;;;;;187.70;98.20;;;;;;;;;;103584;1291;545216;-73
2023/12/05 20:29:08;;;;;;;187.20;93.10;;;;;;;;;;103647;1294;545714;-73
2023/12/05 20:32:26;;;;;;;223.10;110.10;;;;;;;;;;103818;1292;545046;-73
2023/12/05 20:35:57;;;;;;;225.00;113.10;;;;;;;;;;103712;1293;544980;-73
2023/12/05 20:40:07;;;;;;;254.50;121.00;;;;;;;;;;103731;1292;545590;-73
2023/12/05 20:43:32;;;;;;;228.80;110.10;;;;;;;;;;103594;1295;548134;-74